sensor_id;sensor_type;location;lat;lon;timestamp;pressure;altitude;pressure_sealevel;temperature;humidity
41230;BME280;26964;50.428;19.218;2023-04-04T00:00:58;1026.0;;;-0.9;62.9
41230;BME280;26964;50.428;19.218;2023-04-04T00:01:57;1026.1;;;-0.9;63.0
41230;BME280;26964;50.428;19.218;2023-04-04T00:02:58;1026.1;;;-0.9;62.9
41230;BME280;26964;50.428;19.218;2023-04-04T00:03:57;1026.0;;;-0.9;63.0
41230;BME280;26964;50.428;19.218;2023-04-04T00:04:58;1026.1;;;-0.9;62.9
41230;BME280;26964;50.428;19.218;2023-04-04T00:05:58;1026.0;;;-0.9;63.0
41230;BME280;26964;50.428;19.218;2023-04-04T00:06:58;1026.1;;;-0.9;62.9
41230;BME280;26964;50.428;19.218;2023-04-04T00:07:58;1026.0;;;-0.9;63.2
41230;BME280;26964;50.428;19.218;2023-04-04T00:08:58;1026.0;;;-0.9;63.0
41230;BME280;26964;50.428;19.218;2023-04-04T00:09:58;1026.0;;;-0.9;63.0
41230;BME280;26964;50.428;19.218;2023-04-04T00:10:57;1026.0;;;-0.9;63.1
41230;BME280;26964;50.428;19.218;2023-04-04T00:11:58;1026.0;;;-1.0;63.1
41230;BME280;26964;50.428;19.218;2023-04-04T00:12:58;1026.0;;;-1.0;63.0
41230;BME280;26964;50.428;19.218;2023-04-04T00:13:57;1025.9;;;-1.0;63.0
41230;BME280;26964;50.428;19.218;2023-04-04T00:14:58;1025.9;;;-1.0;63.1
41230;BME280;26964;50.428;19.218;2023-04-04T00:15:58;1026.0;;;-1.0;63.1
41230;BME280;26964;50.428;19.218;2023-04-04T00:16:58;1026.0;;;-1.0;63.1
41230;BME280;26964;50.428;19.218;2023-04-04T00:17:58;1025.9;;;-1.0;63.2
41230;BME280;26964;50.428;19.218;2023-04-04T00:18:58;1026.0;;;-1.0;63.3
41230;BME280;26964;50.428;19.218;2023-04-04T00:19:58;1025.9;;;-1.0;63.3
41230;BME280;26964;50.428;19.218;2023-04-04T00:20:58;1026.0;;;-1.0;63.2
41230;BME280;26964;50.428;19.218;2023-04-04T00:21:57;1026.0;;;-1.0;63.2
41230;BME280;26964;50.428;19.218;2023-04-04T00:22:57;1026.0;;;-1.1;63.3
41230;BME280;26964;50.428;19.218;2023-04-04T00:23:57;1025.9;;;-1.1;63.3
41230;BME280;26964;50.428;19.218;2023-04-04T00:24:58;1025.9;;;-1.1;63.4
41230;BME280;26964;50.428;19.218;2023-04-04T00:25:58;1025.9;;;-1.1;63.3
41230;BME280;26964;50.428;19.218;2023-04-04T00:26:58;1025.8;;;-1.1;63.3
41230;BME280;26964;50.428;19.218;2023-04-04T00:27:58;1025.9;;;-1.1;63.3
41230;BME280;26964;50.428;19.218;2023-04-04T00:28:58;1025.9;;;-1.1;63.3
41230;BME280;26964;50.428;19.218;2023-04-04T00:29:58;1025.9;;;-1.1;63.3
41230;BME280;26964;50.428;19.218;2023-04-04T00:30:59;1025.9;;;-1.1;63.4
41230;BME280;26964;50.428;19.218;2023-04-04T00:31:58;1025.9;;;-1.1;63.4
41230;BME280;26964;50.428;19.218;2023-04-04T00:32:57;1025.9;;;-1.2;63.7
41230;BME280;26964;50.428;19.218;2023-04-04T00:33:58;1025.9;;;-1.2;63.5
41230;BME280;26964;50.428;19.218;2023-04-04T00:34:58;1025.9;;;-1.2;63.4
41230;BME280;26964;50.428;19.218;2023-04-04T00:35:58;1025.9;;;-1.2;63.5
41230;BME280;26964;50.428;19.218;2023-04-04T00:36:57;1025.9;;;-1.3;63.5
41230;BME280;26964;50.428;19.218;2023-04-04T00:37:58;1025.8;;;-1.3;63.5
41230;BME280;26964;50.428;19.218;2023-04-04T00:38:58;1025.9;;;-1.3;63.6
41230;BME280;26964;50.428;19.218;2023-04-04T00:39:58;1025.9;;;-1.3;63.7
41230;BME280;26964;50.428;19.218;2023-04-04T00:40:57;1025.9;;;-1.3;63.8
41230;BME280;26964;50.428;19.218;2023-04-04T00:41:57;1025.9;;;-1.3;63.6
41230;BME280;26964;50.428;19.218;2023-04-04T00:42:58;1025.9;;;-1.4;63.7
41230;BME280;26964;50.428;19.218;2023-04-04T00:43:57;1026.0;;;-1.4;63.7
41230;BME280;26964;50.428;19.218;2023-04-04T00:44:58;1025.8;;;-1.4;63.8
41230;BME280;26964;50.428;19.218;2023-04-04T00:45:58;1025.8;;;-1.4;63.9
41230;BME280;26964;50.428;19.218;2023-04-04T00:46:57;1025.8;;;-1.5;64.1
41230;BME280;26964;50.428;19.218;2023-04-04T00:47:57;1025.9;;;-1.5;64.3
41230;BME280;26964;50.428;19.218;2023-04-04T00:48:58;1025.9;;;-1.5;64.0
41230;BME280;26964;50.428;19.218;2023-04-04T00:49:58;1025.9;;;-1.5;64.0
41230;BME280;26964;50.428;19.218;2023-04-04T00:50:58;1025.9;;;-1.5;64.1
41230;BME280;26964;50.428;19.218;2023-04-04T00:51:58;1026.0;;;-1.6;64.1
41230;BME280;26964;50.428;19.218;2023-04-04T00:52:58;1026.0;;;-1.6;64.3
41230;BME280;26964;50.428;19.218;2023-04-04T00:53:57;1026.0;;;-1.6;64.1
41230;BME280;26964;50.428;19.218;2023-04-04T00:54:57;1025.9;;;-1.6;64.0
41230;BME280;26964;50.428;19.218;2023-04-04T00:55:58;1025.9;;;-1.6;64.1
41230;BME280;26964;50.428;19.218;2023-04-04T00:56:57;1025.9;;;-1.6;64.1
41230;BME280;26964;50.428;19.218;2023-04-04T00:57:57;1026.1;;;-1.6;64.1
41230;BME280;26964;50.428;19.218;2023-04-04T00:58:58;1025.9;;;-1.6;64.0
41230;BME280;26964;50.428;19.218;2023-04-04T00:59:57;1025.9;;;-1.6;64.1
41230;BME280;26964;50.428;19.218;2023-04-04T01:00:58;1025.9;;;-1.7;64.2
41230;BME280;26964;50.428;19.218;2023-04-04T01:01:57;1025.9;;;-1.7;64.1
41230;BME280;26964;50.428;19.218;2023-04-04T01:02:57;1026.0;;;-1.7;64.1
41230;BME280;26964;50.428;19.218;2023-04-04T01:03:58;1026.0;;;-1.7;64.2
41230;BME280;26964;50.428;19.218;2023-04-04T01:04:57;1026.0;;;-1.7;64.5
41230;BME280;26964;50.428;19.218;2023-04-04T01:06:01;1025.9;;;-1.7;64.4
41230;BME280;26964;50.428;19.218;2023-04-04T01:06:57;1026.0;;;-1.8;64.5
41230;BME280;26964;50.428;19.218;2023-04-04T01:07:58;1026.0;;;-1.8;64.5
41230;BME280;26964;50.428;19.218;2023-04-04T01:08:57;1025.9;;;-1.8;64.5
41230;BME280;26964;50.428;19.218;2023-04-04T01:09:57;1026.0;;;-1.8;64.5
41230;BME280;26964;50.428;19.218;2023-04-04T01:10:57;1026.0;;;-1.8;64.8
41230;BME280;26964;50.428;19.218;2023-04-04T01:11:57;1025.9;;;-1.8;64.6
41230;BME280;26964;50.428;19.218;2023-04-04T01:12:57;1026.0;;;-1.8;64.5
41230;BME280;26964;50.428;19.218;2023-04-04T01:13:58;1026.0;;;-1.8;64.6
41230;BME280;26964;50.428;19.218;2023-04-04T01:14:58;1026.0;;;-1.8;64.6
41230;BME280;26964;50.428;19.218;2023-04-04T01:15:58;1025.9;;;-1.8;64.6
41230;BME280;26964;50.428;19.218;2023-04-04T01:16:57;1025.9;;;-1.9;64.6
41230;BME280;26964;50.428;19.218;2023-04-04T01:18:00;1025.9;;;-1.9;64.5
41230;BME280;26964;50.428;19.218;2023-04-04T01:18:57;1025.9;;;-1.9;64.7
41230;BME280;26964;50.428;19.218;2023-04-04T01:20:01;1025.9;;;-1.9;64.6
41230;BME280;26964;50.428;19.218;2023-04-04T01:21:01;1025.9;;;-1.9;64.5
41230;BME280;26964;50.428;19.218;2023-04-04T01:21:58;1025.8;;;-1.9;64.9
41230;BME280;26964;50.428;19.218;2023-04-04T01:22:57;1025.9;;;-1.9;64.6
41230;BME280;26964;50.428;19.218;2023-04-04T01:23:58;1025.8;;;-1.9;65.0
41230;BME280;26964;50.428;19.218;2023-04-04T01:24:58;1025.8;;;-1.9;64.8
41230;BME280;26964;50.428;19.218;2023-04-04T01:26:00;1025.9;;;-1.9;64.7
41230;BME280;26964;50.428;19.218;2023-04-04T01:26:57;1025.9;;;-2.0;64.7
41230;BME280;26964;50.428;19.218;2023-04-04T01:27:57;1025.9;;;-2.0;64.8
41230;BME280;26964;50.428;19.218;2023-04-04T01:28:57;1025.9;;;-2.0;64.7
41230;BME280;26964;50.428;19.218;2023-04-04T01:29:57;1025.9;;;-2.0;64.8
41230;BME280;26964;50.428;19.218;2023-04-04T01:30:58;1025.9;;;-2.0;65.0
41230;BME280;26964;50.428;19.218;2023-04-04T01:32:03;1025.9;;;-2.0;65.7
41230;BME280;26964;50.428;19.218;2023-04-04T01:33:01;1025.9;;;-2.0;65.1
41230;BME280;26964;50.428;19.218;2023-04-04T01:34:01;1026.0;;;-2.1;65.1
41230;BME280;26964;50.428;19.218;2023-04-04T01:35:04;1025.9;;;-2.1;65.1
41230;BME280;26964;50.428;19.218;2023-04-04T01:36:02;1026.0;;;-2.1;65.2
41230;BME280;26964;50.428;19.218;2023-04-04T01:37:02;1026.0;;;-2.1;65.2
41230;BME280;26964;50.428;19.218;2023-04-04T01:38:04;1026.0;;;-2.1;65.3
41230;BME280;26964;50.428;19.218;2023-04-04T01:38:58;1026.0;;;-2.1;65.1
41230;BME280;26964;50.428;19.218;2023-04-04T01:40:00;1025.9;;;-2.2;65.2
41230;BME280;26964;50.428;19.218;2023-04-04T01:41:02;1026.1;;;-2.1;65.1
41230;BME280;26964;50.428;19.218;2023-04-04T01:41:57;1026.0;;;-2.2;65.1
41230;BME280;26964;50.428;19.218;2023-04-04T01:42:56;1026.0;;;-2.2;65.2
41230;BME280;26964;50.428;19.218;2023-04-04T01:43:57;1026.0;;;-2.2;65.2
41230;BME280;26964;50.428;19.218;2023-04-04T01:44:57;1025.9;;;-2.2;65.2
41230;BME280;26964;50.428;19.218;2023-04-04T01:45:57;1026.1;;;-2.2;65.2
41230;BME280;26964;50.428;19.218;2023-04-04T01:46:56;1026.1;;;-2.2;65.3
41230;BME280;26964;50.428;19.218;2023-04-04T01:47:57;1026.0;;;-2.2;65.3
41230;BME280;26964;50.428;19.218;2023-04-04T01:48:57;1026.1;;;-2.2;65.2
41230;BME280;26964;50.428;19.218;2023-04-04T01:49:57;1026.1;;;-2.2;65.3
41230;BME280;26964;50.428;19.218;2023-04-04T01:50:57;1026.1;;;-2.2;65.4
41230;BME280;26964;50.428;19.218;2023-04-04T01:51:57;1026.1;;;-2.3;65.3
41230;BME280;26964;50.428;19.218;2023-04-04T01:52:57;1026.1;;;-2.3;65.3
41230;BME280;26964;50.428;19.218;2023-04-04T01:53:57;1026.0;;;-2.3;66.0
41230;BME280;26964;50.428;19.218;2023-04-04T01:54:57;1026.1;;;-2.3;65.4
41230;BME280;26964;50.428;19.218;2023-04-04T01:55:56;1026.2;;;-2.3;65.4
41230;BME280;26964;50.428;19.218;2023-04-04T01:56:57;1026.1;;;-2.3;65.4
41230;BME280;26964;50.428;19.218;2023-04-04T01:57:57;1026.2;;;-2.3;65.5
41230;BME280;26964;50.428;19.218;2023-04-04T01:58:57;1026.2;;;-2.3;65.5
41230;BME280;26964;50.428;19.218;2023-04-04T01:59:57;1026.1;;;-2.3;65.4
41230;BME280;26964;50.428;19.218;2023-04-04T02:00:57;1026.2;;;-2.3;65.4
41230;BME280;26964;50.428;19.218;2023-04-04T02:01:57;1026.1;;;-2.3;65.6
41230;BME280;26964;50.428;19.218;2023-04-04T02:02:57;1026.0;;;-2.4;65.4
41230;BME280;26964;50.428;19.218;2023-04-04T02:03:57;1026.1;;;-2.4;65.4
41230;BME280;26964;50.428;19.218;2023-04-04T02:04:57;1026.2;;;-2.4;65.6
41230;BME280;26964;50.428;19.218;2023-04-04T02:05:57;1026.1;;;-2.4;65.5
41230;BME280;26964;50.428;19.218;2023-04-04T02:06:57;1026.1;;;-2.4;65.5
41230;BME280;26964;50.428;19.218;2023-04-04T02:07:57;1026.1;;;-2.4;65.5
41230;BME280;26964;50.428;19.218;2023-04-04T02:08:57;1026.1;;;-2.4;65.4
41230;BME280;26964;50.428;19.218;2023-04-04T02:09:57;1026.1;;;-2.4;65.6
41230;BME280;26964;50.428;19.218;2023-04-04T02:10:57;1026.2;;;-2.4;65.7
41230;BME280;26964;50.428;19.218;2023-04-04T02:11:57;1026.1;;;-2.5;65.6
41230;BME280;26964;50.428;19.218;2023-04-04T02:12:57;1026.2;;;-2.5;65.8
41230;BME280;26964;50.428;19.218;2023-04-04T02:13:57;1026.1;;;-2.5;65.9
41230;BME280;26964;50.428;19.218;2023-04-04T02:14:57;1026.1;;;-2.5;66.0
41230;BME280;26964;50.428;19.218;2023-04-04T02:15:57;1026.1;;;-2.5;65.8
41230;BME280;26964;50.428;19.218;2023-04-04T02:16:57;1026.2;;;-2.5;65.8
41230;BME280;26964;50.428;19.218;2023-04-04T02:17:57;1026.2;;;-2.5;65.8
41230;BME280;26964;50.428;19.218;2023-04-04T02:18:57;1026.2;;;-2.5;65.7
41230;BME280;26964;50.428;19.218;2023-04-04T02:19:57;1026.2;;;-2.5;66.1
41230;BME280;26964;50.428;19.218;2023-04-04T02:20:56;1026.2;;;-2.5;66.1
41230;BME280;26964;50.428;19.218;2023-04-04T02:21:56;1026.1;;;-2.6;65.9
41230;BME280;26964;50.428;19.218;2023-04-04T02:22:58;1026.2;;;-2.6;65.9
41230;BME280;26964;50.428;19.218;2023-04-04T02:23:58;1026.2;;;-2.6;65.9
41230;BME280;26964;50.428;19.218;2023-04-04T02:24:57;1026.2;;;-2.6;65.9
41230;BME280;26964;50.428;19.218;2023-04-04T02:25:57;1026.2;;;-2.6;66.0
41230;BME280;26964;50.428;19.218;2023-04-04T02:26:57;1026.2;;;-2.6;66.1
41230;BME280;26964;50.428;19.218;2023-04-04T02:27:57;1026.2;;;-2.6;65.9
41230;BME280;26964;50.428;19.218;2023-04-04T02:28:57;1026.2;;;-2.6;65.9
41230;BME280;26964;50.428;19.218;2023-04-04T02:29:57;1026.2;;;-2.6;65.9
41230;BME280;26964;50.428;19.218;2023-04-04T02:30:59;1026.2;;;-2.6;66.0
41230;BME280;26964;50.428;19.218;2023-04-04T02:31:57;1026.2;;;-2.6;66.0
41230;BME280;26964;50.428;19.218;2023-04-04T02:32:57;1026.1;;;-2.7;65.9
41230;BME280;26964;50.428;19.218;2023-04-04T02:33:56;1026.1;;;-2.7;66.1
41230;BME280;26964;50.428;19.218;2023-04-04T02:34:57;1026.2;;;-2.7;66.0
41230;BME280;26964;50.428;19.218;2023-04-04T02:35:56;1026.2;;;-2.7;66.0
41230;BME280;26964;50.428;19.218;2023-04-04T02:36:57;1026.1;;;-2.7;66.0
41230;BME280;26964;50.428;19.218;2023-04-04T02:37:56;1026.1;;;-2.7;66.1
41230;BME280;26964;50.428;19.218;2023-04-04T02:38:57;1026.2;;;-2.7;66.1
41230;BME280;26964;50.428;19.218;2023-04-04T02:39:57;1026.2;;;-2.7;66.0
41230;BME280;26964;50.428;19.218;2023-04-04T02:40:57;1026.2;;;-2.7;66.1
41230;BME280;26964;50.428;19.218;2023-04-04T02:41:57;1026.1;;;-2.7;66.0
41230;BME280;26964;50.428;19.218;2023-04-04T02:42:57;1026.1;;;-2.7;66.0
41230;BME280;26964;50.428;19.218;2023-04-04T02:43:57;1026.1;;;-2.7;66.2
41230;BME280;26964;50.428;19.218;2023-04-04T02:44:56;1026.2;;;-2.7;66.1
41230;BME280;26964;50.428;19.218;2023-04-04T02:45:57;1026.1;;;-2.7;66.3
41230;BME280;26964;50.428;19.218;2023-04-04T02:46:57;1026.2;;;-2.7;66.1
41230;BME280;26964;50.428;19.218;2023-04-04T02:47:57;1026.3;;;-2.7;66.2
41230;BME280;26964;50.428;19.218;2023-04-04T02:48:56;1026.2;;;-2.7;66.2
41230;BME280;26964;50.428;19.218;2023-04-04T02:49:57;1026.1;;;-2.8;66.5
41230;BME280;26964;50.428;19.218;2023-04-04T02:50:56;1026.2;;;-2.8;66.5
41230;BME280;26964;50.428;19.218;2023-04-04T02:51:57;1026.2;;;-2.8;66.4
41230;BME280;26964;50.428;19.218;2023-04-04T02:52:58;1026.1;;;-2.8;66.4
41230;BME280;26964;50.428;19.218;2023-04-04T02:53:57;1026.2;;;-2.8;66.3
41230;BME280;26964;50.428;19.218;2023-04-04T02:54:57;1026.2;;;-2.8;66.4
41230;BME280;26964;50.428;19.218;2023-04-04T02:55:57;1026.3;;;-2.8;66.3
41230;BME280;26964;50.428;19.218;2023-04-04T02:56:57;1026.2;;;-2.8;66.8
41230;BME280;26964;50.428;19.218;2023-04-04T02:57:56;1026.2;;;-2.8;66.9
41230;BME280;26964;50.428;19.218;2023-04-04T02:58:56;1026.1;;;-2.8;66.5
41230;BME280;26964;50.428;19.218;2023-04-04T02:59:57;1026.1;;;-2.8;66.5
41230;BME280;26964;50.428;19.218;2023-04-04T03:00:57;1026.2;;;-2.8;66.4
41230;BME280;26964;50.428;19.218;2023-04-04T03:01:57;1026.2;;;-2.8;66.7
41230;BME280;26964;50.428;19.218;2023-04-04T03:02:57;1026.2;;;-2.8;66.5
41230;BME280;26964;50.428;19.218;2023-04-04T03:03:57;1026.2;;;-2.8;66.5
41230;BME280;26964;50.428;19.218;2023-04-04T03:04:57;1026.2;;;-2.8;66.4
41230;BME280;26964;50.428;19.218;2023-04-04T03:05:57;1026.2;;;-2.8;66.4
41230;BME280;26964;50.428;19.218;2023-04-04T03:06:57;1026.2;;;-2.8;66.4
41230;BME280;26964;50.428;19.218;2023-04-04T03:07:58;1026.2;;;-2.8;66.5
41230;BME280;26964;50.428;19.218;2023-04-04T03:08:57;1026.2;;;-2.8;66.6
41230;BME280;26964;50.428;19.218;2023-04-04T03:09:57;1026.1;;;-2.8;66.5
41230;BME280;26964;50.428;19.218;2023-04-04T03:10:57;1026.2;;;-2.8;66.5
41230;BME280;26964;50.428;19.218;2023-04-04T03:11:57;1026.2;;;-2.8;66.4
41230;BME280;26964;50.428;19.218;2023-04-04T03:12:56;1026.2;;;-2.8;66.5
41230;BME280;26964;50.428;19.218;2023-04-04T03:13:56;1026.2;;;-2.8;66.5
41230;BME280;26964;50.428;19.218;2023-04-04T03:14:57;1026.1;;;-2.8;66.5
41230;BME280;26964;50.428;19.218;2023-04-04T03:15:58;1026.1;;;-2.8;66.5
41230;BME280;26964;50.428;19.218;2023-04-04T03:16:57;1026.1;;;-2.8;66.6
41230;BME280;26964;50.428;19.218;2023-04-04T03:17:57;1026.2;;;-2.9;66.6
41230;BME280;26964;50.428;19.218;2023-04-04T03:18:57;1026.1;;;-2.9;66.5
41230;BME280;26964;50.428;19.218;2023-04-04T03:19:57;1026.2;;;-2.9;66.6
41230;BME280;26964;50.428;19.218;2023-04-04T03:20:57;1026.2;;;-2.9;66.5
41230;BME280;26964;50.428;19.218;2023-04-04T03:21:57;1026.1;;;-2.9;66.6
41230;BME280;26964;50.428;19.218;2023-04-04T03:22:56;1026.1;;;-2.9;66.7
41230;BME280;26964;50.428;19.218;2023-04-04T03:23:58;1026.2;;;-2.9;66.7
41230;BME280;26964;50.428;19.218;2023-04-04T03:24:57;1026.1;;;-2.9;66.7
41230;BME280;26964;50.428;19.218;2023-04-04T03:25:57;1026.1;;;-2.9;66.8
41230;BME280;26964;50.428;19.218;2023-04-04T03:26:58;1026.2;;;-2.9;66.7
41230;BME280;26964;50.428;19.218;2023-04-04T03:27:58;1026.2;;;-2.9;66.7
41230;BME280;26964;50.428;19.218;2023-04-04T03:28:56;1026.1;;;-2.9;66.7
41230;BME280;26964;50.428;19.218;2023-04-04T03:29:57;1026.1;;;-2.9;66.7
41230;BME280;26964;50.428;19.218;2023-04-04T03:31:57;1026.2;;;-2.9;66.7
41230;BME280;26964;50.428;19.218;2023-04-04T03:32:57;1026.1;;;-2.9;67.3
41230;BME280;26964;50.428;19.218;2023-04-04T03:33:57;1026.1;;;-2.9;66.9
41230;BME280;26964;50.428;19.218;2023-04-04T03:34:57;1026.1;;;-2.9;66.9
41230;BME280;26964;50.428;19.218;2023-04-04T03:35:56;1026.2;;;-2.9;66.9
41230;BME280;26964;50.428;19.218;2023-04-04T03:36:57;1026.2;;;-2.9;66.8
41230;BME280;26964;50.428;19.218;2023-04-04T03:38:56;1026.2;;;-2.9;66.8
41230;BME280;26964;50.428;19.218;2023-04-04T03:39:56;1026.2;;;-2.9;66.9
41230;BME280;26964;50.428;19.218;2023-04-04T03:41:00;1026.2;;;-2.9;67.1
41230;BME280;26964;50.428;19.218;2023-04-04T03:41:57;1026.1;;;-2.9;67.0
41230;BME280;26964;50.428;19.218;2023-04-04T03:42:57;1026.1;;;-2.9;67.0
41230;BME280;26964;50.428;19.218;2023-04-04T03:43:57;1026.1;;;-2.9;67.0
41230;BME280;26964;50.428;19.218;2023-04-04T03:44:56;1026.1;;;-2.9;67.0
41230;BME280;26964;50.428;19.218;2023-04-04T03:46:00;1026.1;;;-2.9;67.1
41230;BME280;26964;50.428;19.218;2023-04-04T03:46:57;1026.2;;;-2.9;67.1
41230;BME280;26964;50.428;19.218;2023-04-04T03:47:57;1026.1;;;-2.9;67.3
41230;BME280;26964;50.428;19.218;2023-04-04T03:48:58;1026.0;;;-3.0;67.3
41230;BME280;26964;50.428;19.218;2023-04-04T03:49:56;1026.1;;;-2.9;67.5
41230;BME280;26964;50.428;19.218;2023-04-04T03:50:57;1026.1;;;-3.0;67.4
41230;BME280;26964;50.428;19.218;2023-04-04T03:51:57;1026.1;;;-3.0;67.4
41230;BME280;26964;50.428;19.218;2023-04-04T03:52:57;1026.2;;;-3.0;67.3
41230;BME280;26964;50.428;19.218;2023-04-04T03:53:57;1026.1;;;-2.9;67.5
41230;BME280;26964;50.428;19.218;2023-04-04T03:54:57;1026.0;;;-2.9;67.3
41230;BME280;26964;50.428;19.218;2023-04-04T03:55:56;1026.1;;;-3.0;67.4
41230;BME280;26964;50.428;19.218;2023-04-04T03:56:56;1026.0;;;-2.9;67.5
41230;BME280;26964;50.428;19.218;2023-04-04T03:57:56;1026.2;;;-2.9;67.6
41230;BME280;26964;50.428;19.218;2023-04-04T03:58:57;1026.2;;;-3.0;67.4
41230;BME280;26964;50.428;19.218;2023-04-04T03:59:56;1026.1;;;-2.9;67.3
41230;BME280;26964;50.428;19.218;2023-04-04T04:00:57;1026.1;;;-2.9;67.3
41230;BME280;26964;50.428;19.218;2023-04-04T04:01:56;1026.1;;;-2.9;67.4
41230;BME280;26964;50.428;19.218;2023-04-04T04:02:57;1026.0;;;-2.9;67.3
41230;BME280;26964;50.428;19.218;2023-04-04T04:03:57;1026.1;;;-2.9;67.5
41230;BME280;26964;50.428;19.218;2023-04-04T04:04:57;1026.1;;;-2.9;67.4
41230;BME280;26964;50.428;19.218;2023-04-04T04:05:57;1026.0;;;-2.9;67.5
41230;BME280;26964;50.428;19.218;2023-04-04T04:06:57;1026.0;;;-2.9;67.4
41230;BME280;26964;50.428;19.218;2023-04-04T04:07:56;1026.0;;;-2.9;67.4
41230;BME280;26964;50.428;19.218;2023-04-04T04:08:57;1026.0;;;-2.9;67.8
41230;BME280;26964;50.428;19.218;2023-04-04T04:09:57;1026.0;;;-2.9;67.6
41230;BME280;26964;50.428;19.218;2023-04-04T04:11:57;1026.1;;;-2.9;67.5
41230;BME280;26964;50.428;19.218;2023-04-04T04:12:57;1026.1;;;-2.9;67.5
41230;BME280;26964;50.428;19.218;2023-04-04T04:13:57;1025.9;;;-2.9;67.4
41230;BME280;26964;50.428;19.218;2023-04-04T04:14:57;1026.0;;;-2.9;67.7
41230;BME280;26964;50.428;19.218;2023-04-04T04:15:57;1025.9;;;-2.9;67.5
41230;BME280;26964;50.428;19.218;2023-04-04T04:16:57;1025.9;;;-2.9;67.5
41230;BME280;26964;50.428;19.218;2023-04-04T04:17:57;1026.0;;;-2.9;67.5
41230;BME280;26964;50.428;19.218;2023-04-04T04:18:57;1026.0;;;-2.9;67.7
41230;BME280;26964;50.428;19.218;2023-04-04T04:19:57;1025.9;;;-2.9;67.7
41230;BME280;26964;50.428;19.218;2023-04-04T04:20:56;1026.0;;;-2.9;67.6
41230;BME280;26964;50.428;19.218;2023-04-04T04:21:57;1025.9;;;-2.9;67.6
41230;BME280;26964;50.428;19.218;2023-04-04T04:22:57;1025.9;;;-2.9;67.5
41230;BME280;26964;50.428;19.218;2023-04-04T04:23:56;1025.8;;;-2.9;67.5
41230;BME280;26964;50.428;19.218;2023-04-04T04:24:57;1025.9;;;-2.9;67.7
41230;BME280;26964;50.428;19.218;2023-04-04T04:25:57;1025.8;;;-2.9;67.8
41230;BME280;26964;50.428;19.218;2023-04-04T04:26:57;1025.9;;;-2.9;67.8
41230;BME280;26964;50.428;19.218;2023-04-04T04:27:57;1025.8;;;-2.9;67.7
41230;BME280;26964;50.428;19.218;2023-04-04T04:28:57;1025.9;;;-2.9;67.7
41230;BME280;26964;50.428;19.218;2023-04-04T04:29:57;1025.9;;;-2.9;67.7
41230;BME280;26964;50.428;19.218;2023-04-04T04:31:57;1025.9;;;-2.9;67.8
41230;BME280;26964;50.428;19.218;2023-04-04T04:32:57;1025.9;;;-2.9;67.8
41230;BME280;26964;50.428;19.218;2023-04-04T04:33:57;1025.9;;;-2.9;67.9
41230;BME280;26964;50.428;19.218;2023-04-04T04:34:56;1025.9;;;-2.9;67.9
41230;BME280;26964;50.428;19.218;2023-04-04T04:35:58;1025.8;;;-2.9;67.7
41230;BME280;26964;50.428;19.218;2023-04-04T04:36:57;1026.0;;;-2.9;67.7
41230;BME280;26964;50.428;19.218;2023-04-04T04:37:57;1025.9;;;-2.9;67.7
41230;BME280;26964;50.428;19.218;2023-04-04T04:38:56;1025.9;;;-2.9;67.8
41230;BME280;26964;50.428;19.218;2023-04-04T04:39:57;1025.9;;;-2.9;67.8
41230;BME280;26964;50.428;19.218;2023-04-04T04:40:56;1025.9;;;-2.9;67.9
41230;BME280;26964;50.428;19.218;2023-04-04T04:41:57;1025.9;;;-2.9;68.1
41230;BME280;26964;50.428;19.218;2023-04-04T04:42:57;1025.8;;;-2.9;68.0
41230;BME280;26964;50.428;19.218;2023-04-04T04:43:57;1026.0;;;-2.9;67.9
41230;BME280;26964;50.428;19.218;2023-04-04T04:44:57;1025.9;;;-2.9;67.8
41230;BME280;26964;50.428;19.218;2023-04-04T04:45:56;1025.9;;;-2.9;67.9
41230;BME280;26964;50.428;19.218;2023-04-04T04:46:56;1025.9;;;-2.8;67.9
41230;BME280;26964;50.428;19.218;2023-04-04T04:47:57;1025.9;;;-2.9;67.9
41230;BME280;26964;50.428;19.218;2023-04-04T04:48:56;1026.0;;;-2.9;68.0
41230;BME280;26964;50.428;19.218;2023-04-04T04:49:57;1025.9;;;-2.9;68.0
41230;BME280;26964;50.428;19.218;2023-04-04T04:50:57;1025.9;;;-2.9;67.9
41230;BME280;26964;50.428;19.218;2023-04-04T04:51:57;1026.0;;;-2.8;67.9
41230;BME280;26964;50.428;19.218;2023-04-04T04:52:57;1025.9;;;-2.9;68.2
41230;BME280;26964;50.428;19.218;2023-04-04T04:53:56;1025.9;;;-2.9;68.1
41230;BME280;26964;50.428;19.218;2023-04-04T04:54:57;1026.0;;;-2.9;67.9
41230;BME280;26964;50.428;19.218;2023-04-04T04:55:57;1026.0;;;-2.8;68.0
41230;BME280;26964;50.428;19.218;2023-04-04T04:56:56;1025.9;;;-2.8;67.9
41230;BME280;26964;50.428;19.218;2023-04-04T04:57:57;1026.0;;;-2.8;68.0
41230;BME280;26964;50.428;19.218;2023-04-04T04:58:57;1026.0;;;-2.8;68.4
41230;BME280;26964;50.428;19.218;2023-04-04T04:59:57;1025.9;;;-2.8;68.1
41230;BME280;26964;50.428;19.218;2023-04-04T05:00:57;1026.0;;;-2.8;68.0
41230;BME280;26964;50.428;19.218;2023-04-04T05:01:56;1026.0;;;-2.8;68.2
41230;BME280;26964;50.428;19.218;2023-04-04T05:02:57;1026.0;;;-2.8;68.0
41230;BME280;26964;50.428;19.218;2023-04-04T05:03:56;1026.0;;;-2.8;68.0
41230;BME280;26964;50.428;19.218;2023-04-04T05:04:56;1026.1;;;-2.8;68.0
41230;BME280;26964;50.428;19.218;2023-04-04T05:05:56;1026.1;;;-2.8;68.6
41230;BME280;26964;50.428;19.218;2023-04-04T05:06:56;1026.1;;;-2.8;68.2
41230;BME280;26964;50.428;19.218;2023-04-04T05:07:56;1026.1;;;-2.8;68.2
41230;BME280;26964;50.428;19.218;2023-04-04T05:08:57;1026.1;;;-2.8;68.2
41230;BME280;26964;50.428;19.218;2023-04-04T05:09:57;1026.2;;;-2.8;68.2
41230;BME280;26964;50.428;19.218;2023-04-04T05:10:57;1026.1;;;-2.8;68.3
41230;BME280;26964;50.428;19.218;2023-04-04T05:11:57;1026.0;;;-2.8;68.3
41230;BME280;26964;50.428;19.218;2023-04-04T05:12:57;1026.1;;;-2.8;68.3
41230;BME280;26964;50.428;19.218;2023-04-04T05:13:56;1026.1;;;-2.8;68.2
41230;BME280;26964;50.428;19.218;2023-04-04T05:14:57;1026.0;;;-2.8;68.3
41230;BME280;26964;50.428;19.218;2023-04-04T05:15:57;1026.1;;;-2.8;68.2
41230;BME280;26964;50.428;19.218;2023-04-04T05:16:57;1026.0;;;-2.8;68.3
41230;BME280;26964;50.428;19.218;2023-04-04T05:17:56;1026.0;;;-2.8;68.3
41230;BME280;26964;50.428;19.218;2023-04-04T05:18:56;1026.1;;;-2.8;68.4
41230;BME280;26964;50.428;19.218;2023-04-04T05:19:57;1026.1;;;-2.8;68.3
41230;BME280;26964;50.428;19.218;2023-04-04T05:20:57;1026.1;;;-2.8;68.4
41230;BME280;26964;50.428;19.218;2023-04-04T05:21:57;1026.0;;;-2.8;68.6
41230;BME280;26964;50.428;19.218;2023-04-04T05:22:57;1026.1;;;-2.8;68.5
41230;BME280;26964;50.428;19.218;2023-04-04T05:23:57;1026.1;;;-2.8;68.3
41230;BME280;26964;50.428;19.218;2023-04-04T05:24:57;1026.1;;;-2.8;68.3
41230;BME280;26964;50.428;19.218;2023-04-04T05:25:56;1026.2;;;-2.7;68.4
41230;BME280;26964;50.428;19.218;2023-04-04T05:26:57;1026.2;;;-2.7;68.4
41230;BME280;26964;50.428;19.218;2023-04-04T05:27:57;1026.2;;;-2.7;68.5
41230;BME280;26964;50.428;19.218;2023-04-04T05:28:56;1026.2;;;-2.7;68.4
41230;BME280;26964;50.428;19.218;2023-04-04T05:29:56;1026.1;;;-2.7;68.6
41230;BME280;26964;50.428;19.218;2023-04-04T05:30:57;1026.1;;;-2.7;68.4
41230;BME280;26964;50.428;19.218;2023-04-04T05:31:57;1026.1;;;-2.7;68.5
41230;BME280;26964;50.428;19.218;2023-04-04T05:32:57;1026.0;;;-2.7;68.4
41230;BME280;26964;50.428;19.218;2023-04-04T05:33:56;1026.1;;;-2.6;68.4
41230;BME280;26964;50.428;19.218;2023-04-04T05:34:57;1026.1;;;-2.6;68.5